Birkenfeld, Oregon
Current Conditions -  °F | °C
As of 9:53 AM on Thursday 30 Oct 2014 (Local Time) from KSPB Reporting Station
Overcast Overcast  
Wind Chill: 56°   Ceiling: 4600
Heat Index: 56°   Visibility: 10mi
Dew Point: 55°   Wind: 3mph
Humidity: 97%   Direction: 270°W
Pressure: 29.87"   Gusts: NA
Location:  46.0479°N, 123.274°W
Report Text: KSPB 301653Z AUTO 27003KT 10SM OVC046 13/13 A2987 RMK AO2 RAE39 SLP115 P0007 T01330128
Loading
Personal Weather Stations






























Interactive Weather Map
Tropical Storm Tracking
New forecast layout! Learn more

10-Day Weather Forecast

Advertisements
Track Severe Weather on mobile